sensor_id;sensor_type;location;lat;lon;timestamp;P1;durP1;ratioP1;P2;durP2;ratioP2
7308;SDS011;3695;53.330;9.876;2023-11-19T00:01:30;3.20;;;2.63;;
7308;SDS011;3695;53.330;9.876;2023-11-19T00:03:57;3.60;;;2.80;;
7308;SDS011;3695;53.330;9.876;2023-11-19T00:06:24;2.77;;;2.33;;
7308;SDS011;3695;53.330;9.876;2023-11-19T00:08:50;3.30;;;2.40;;
7308;SDS011;3695;53.330;9.876;2023-11-19T00:11:17;3.13;;;2.23;;
7308;SDS011;3695;53.330;9.876;2023-11-19T00:13:43;2.90;;;2.43;;
7308;SDS011;3695;53.330;9.876;2023-11-19T00:16:11;3.33;;;2.50;;
7308;SDS011;3695;53.330;9.876;2023-11-19T00:18:37;3.10;;;2.50;;
7308;SDS011;3695;53.330;9.876;2023-11-19T00:21:04;3.23;;;2.60;;
7308;SDS011;3695;53.330;9.876;2023-11-19T00:23:31;3.40;;;2.30;;
7308;SDS011;3695;53.330;9.876;2023-11-19T00:25:58;2.90;;;2.50;;
7308;SDS011;3695;53.330;9.876;2023-11-19T00:28:24;2.90;;;2.50;;
7308;SDS011;3695;53.330;9.876;2023-11-19T00:30:51;2.43;;;2.17;;
7308;SDS011;3695;53.330;9.876;2023-11-19T00:33:19;2.97;;;2.30;;
7308;SDS011;3695;53.330;9.876;2023-11-19T00:35:45;2.53;;;2.33;;
7308;SDS011;3695;53.330;9.876;2023-11-19T00:38:12;2.80;;;2.40;;
7308;SDS011;3695;53.330;9.876;2023-11-19T00:40:38;2.33;;;2.10;;
7308;SDS011;3695;53.330;9.876;2023-11-19T00:43:05;3.73;;;1.90;;
7308;SDS011;3695;53.330;9.876;2023-11-19T00:45:32;2.07;;;1.80;;
7308;SDS011;3695;53.330;9.876;2023-11-19T00:47:58;1.73;;;1.63;;
7308;SDS011;3695;53.330;9.876;2023-11-19T00:50:26;2.50;;;1.60;;
7308;SDS011;3695;53.330;9.876;2023-11-19T00:52:54;1.90;;;1.80;;
7308;SDS011;3695;53.330;9.876;2023-11-19T00:55:20;2.60;;;1.93;;
7308;SDS011;3695;53.330;9.876;2023-11-19T00:57:47;2.60;;;1.90;;
7308;SDS011;3695;53.330;9.876;2023-11-19T01:00:14;2.93;;;1.80;;
7308;SDS011;3695;53.330;9.876;2023-11-19T01:02:43;2.20;;;1.70;;
7308;SDS011;3695;53.330;9.876;2023-11-19T01:05:10;3.10;;;1.73;;
7308;SDS011;3695;53.330;9.876;2023-11-19T01:07:40;1.70;;;1.60;;
7308;SDS011;3695;53.330;9.876;2023-11-19T01:10:07;1.60;;;1.50;;
7308;SDS011;3695;53.330;9.876;2023-11-19T01:12:35;1.37;;;1.27;;
7308;SDS011;3695;53.330;9.876;2023-11-19T01:15:02;1.60;;;1.50;;
7308;SDS011;3695;53.330;9.876;2023-11-19T01:17:29;1.57;;;1.40;;
7308;SDS011;3695;53.330;9.876;2023-11-19T01:19:56;1.40;;;1.30;;
7308;SDS011;3695;53.330;9.876;2023-11-19T01:22:23;3.07;;;1.50;;
7308;SDS011;3695;53.330;9.876;2023-11-19T01:24:50;2.03;;;1.20;;
7308;SDS011;3695;53.330;9.876;2023-11-19T01:27:17;1.50;;;1.40;;
7308;SDS011;3695;53.330;9.876;2023-11-19T01:29:43;1.30;;;1.20;;
7308;SDS011;3695;53.330;9.876;2023-11-19T01:32:10;1.43;;;1.33;;
7308;SDS011;3695;53.330;9.876;2023-11-19T01:34:37;1.87;;;1.20;;
7308;SDS011;3695;53.330;9.876;2023-11-19T01:37:04;1.33;;;1.23;;
7308;SDS011;3695;53.330;9.876;2023-11-19T01:39:30;1.43;;;1.27;;
7308;SDS011;3695;53.330;9.876;2023-11-19T01:41:58;2.90;;;1.60;;
7308;SDS011;3695;53.330;9.876;2023-11-19T01:44:24;1.50;;;1.30;;
7308;SDS011;3695;53.330;9.876;2023-11-19T01:46:50;1.60;;;1.50;;
7308;SDS011;3695;53.330;9.876;2023-11-19T01:49:17;1.40;;;1.30;;
7308;SDS011;3695;53.330;9.876;2023-11-19T01:51:45;1.50;;;1.40;;
7308;SDS011;3695;53.330;9.876;2023-11-19T01:54:13;1.30;;;1.20;;
7308;SDS011;3695;53.330;9.876;2023-11-19T01:56:40;2.10;;;1.20;;
7308;SDS011;3695;53.330;9.876;2023-11-19T01:59:09;1.63;;;1.40;;
7308;SDS011;3695;53.330;9.876;2023-11-19T02:01:38;2.57;;;1.60;;
7308;SDS011;3695;53.330;9.876;2023-11-19T02:04:06;1.70;;;1.60;;
7308;SDS011;3695;53.330;9.876;2023-11-19T02:06:34;2.17;;;1.70;;
7308;SDS011;3695;53.330;9.876;2023-11-19T02:09:02;2.27;;;1.70;;
7308;SDS011;3695;53.330;9.876;2023-11-19T02:11:32;1.60;;;1.40;;
7308;SDS011;3695;53.330;9.876;2023-11-19T02:13:59;1.80;;;1.60;;
7308;SDS011;3695;53.330;9.876;2023-11-19T02:16:27;1.70;;;1.60;;
7308;SDS011;3695;53.330;9.876;2023-11-19T02:18:54;2.67;;;1.50;;
7308;SDS011;3695;53.330;9.876;2023-11-19T02:21:20;2.37;;;1.70;;
7308;SDS011;3695;53.330;9.876;2023-11-19T02:23:46;1.80;;;1.70;;
7308;SDS011;3695;53.330;9.876;2023-11-19T02:26:14;1.70;;;1.60;;
7308;SDS011;3695;53.330;9.876;2023-11-19T02:28:45;2.73;;;1.83;;
7308;SDS011;3695;53.330;9.876;2023-11-19T02:31:12;2.10;;;1.90;;
7308;SDS011;3695;53.330;9.876;2023-11-19T02:33:39;2.20;;;1.77;;
7308;SDS011;3695;53.330;9.876;2023-11-19T02:36:06;2.30;;;1.97;;
7308;SDS011;3695;53.330;9.876;2023-11-19T02:38:34;3.50;;;2.20;;
7308;SDS011;3695;53.330;9.876;2023-11-19T02:41:02;2.40;;;1.97;;
7308;SDS011;3695;53.330;9.876;2023-11-19T02:43:30;2.17;;;1.90;;
7308;SDS011;3695;53.330;9.876;2023-11-19T02:45:59;4.13;;;2.50;;
7308;SDS011;3695;53.330;9.876;2023-11-19T02:48:26;2.70;;;2.47;;
7308;SDS011;3695;53.330;9.876;2023-11-19T02:50:52;2.70;;;2.40;;
7308;SDS011;3695;53.330;9.876;2023-11-19T02:53:19;4.67;;;3.07;;
7308;SDS011;3695;53.330;9.876;2023-11-19T02:55:47;4.40;;;3.33;;
7308;SDS011;3695;53.330;9.876;2023-11-19T02:58:15;4.43;;;3.23;;
7308;SDS011;3695;53.330;9.876;2023-11-19T03:00:48;4.30;;;3.47;;
7308;SDS011;3695;53.330;9.876;2023-11-19T03:03:23;4.33;;;3.57;;
7308;SDS011;3695;53.330;9.876;2023-11-19T03:05:53;4.07;;;3.50;;
7308;SDS011;3695;53.330;9.876;2023-11-19T03:08:20;4.77;;;3.70;;
7308;SDS011;3695;53.330;9.876;2023-11-19T03:10:47;3.97;;;3.40;;
7308;SDS011;3695;53.330;9.876;2023-11-19T03:13:14;4.33;;;3.67;;
7308;SDS011;3695;53.330;9.876;2023-11-19T03:15:42;3.50;;;3.07;;
7308;SDS011;3695;53.330;9.876;2023-11-19T03:18:08;5.43;;;3.20;;
7308;SDS011;3695;53.330;9.876;2023-11-19T03:20:36;3.77;;;3.23;;
7308;SDS011;3695;53.330;9.876;2023-11-19T03:23:02;5.17;;;3.60;;
7308;SDS011;3695;53.330;9.876;2023-11-19T03:25:29;4.90;;;4.07;;
7308;SDS011;3695;53.330;9.876;2023-11-19T03:27:59;4.30;;;3.67;;
7308;SDS011;3695;53.330;9.876;2023-11-19T03:30:26;6.70;;;4.60;;
7308;SDS011;3695;53.330;9.876;2023-11-19T03:32:54;5.73;;;4.50;;
7308;SDS011;3695;53.330;9.876;2023-11-19T03:35:20;7.10;;;4.83;;
7308;SDS011;3695;53.330;9.876;2023-11-19T03:37:48;6.70;;;4.77;;
7308;SDS011;3695;53.330;9.876;2023-11-19T03:40:14;8.50;;;5.83;;
7308;SDS011;3695;53.330;9.876;2023-11-19T03:42:41;9.00;;;5.57;;
7308;SDS011;3695;53.330;9.876;2023-11-19T03:45:08;12.23;;;6.43;;
7308;SDS011;3695;53.330;9.876;2023-11-19T03:47:35;13.10;;;7.40;;
7308;SDS011;3695;53.330;9.876;2023-11-19T03:50:02;10.13;;;7.07;;
7308;SDS011;3695;53.330;9.876;2023-11-19T03:52:29;12.50;;;7.97;;
7308;SDS011;3695;53.330;9.876;2023-11-19T03:54:57;16.27;;;7.83;;
7308;SDS011;3695;53.330;9.876;2023-11-19T03:57:23;15.27;;;7.93;;
7308;SDS011;3695;53.330;9.876;2023-11-19T03:59:50;25.33;;;9.63;;
7308;SDS011;3695;53.330;9.876;2023-11-19T04:02:16;23.93;;;11.07;;
7308;SDS011;3695;53.330;9.876;2023-11-19T04:04:43;26.10;;;12.07;;
7308;SDS011;3695;53.330;9.876;2023-11-19T04:07:09;33.87;;;14.00;;
7308;SDS011;3695;53.330;9.876;2023-11-19T04:09:36;35.20;;;14.80;;
7308;SDS011;3695;53.330;9.876;2023-11-19T04:12:04;36.13;;;15.00;;
7308;SDS011;3695;53.330;9.876;2023-11-19T04:14:31;51.53;;;17.07;;
7308;SDS011;3695;53.330;9.876;2023-11-19T04:16:58;47.80;;;16.87;;
7308;SDS011;3695;53.330;9.876;2023-11-19T04:19:24;45.80;;;18.60;;
7308;SDS011;3695;53.330;9.876;2023-11-19T04:21:51;45.43;;;18.13;;
7308;SDS011;3695;53.330;9.876;2023-11-19T04:24:17;47.33;;;18.37;;
7308;SDS011;3695;53.330;9.876;2023-11-19T04:26:44;54.87;;;19.37;;
7308;SDS011;3695;53.330;9.876;2023-11-19T04:29:13;51.73;;;19.93;;
7308;SDS011;3695;53.330;9.876;2023-11-19T04:31:42;56.87;;;21.10;;
7308;SDS011;3695;53.330;9.876;2023-11-19T04:34:09;51.20;;;21.13;;
7308;SDS011;3695;53.330;9.876;2023-11-19T04:36:36;50.97;;;19.93;;
7308;SDS011;3695;53.330;9.876;2023-11-19T04:39:03;57.00;;;20.60;;
7308;SDS011;3695;53.330;9.876;2023-11-19T04:41:34;55.63;;;22.20;;
7308;SDS011;3695;53.330;9.876;2023-11-19T04:44:00;51.93;;;20.80;;
7308;SDS011;3695;53.330;9.876;2023-11-19T04:46:28;54.63;;;22.27;;
7308;SDS011;3695;53.330;9.876;2023-11-19T04:48:54;64.50;;;23.43;;
7308;SDS011;3695;53.330;9.876;2023-11-19T04:51:21;60.03;;;23.63;;
7308;SDS011;3695;53.330;9.876;2023-11-19T04:53:47;56.50;;;23.37;;
7308;SDS011;3695;53.330;9.876;2023-11-19T04:56:14;63.70;;;21.87;;
7308;SDS011;3695;53.330;9.876;2023-11-19T04:58:41;66.67;;;24.73;;
7308;SDS011;3695;53.330;9.876;2023-11-19T05:01:12;53.70;;;23.47;;
7308;SDS011;3695;53.330;9.876;2023-11-19T05:03:41;58.93;;;24.03;;
7308;SDS011;3695;53.330;9.876;2023-11-19T05:06:08;76.90;;;26.00;;
7308;SDS011;3695;53.330;9.876;2023-11-19T05:08:35;71.00;;;25.10;;
7308;SDS011;3695;53.330;9.876;2023-11-19T05:11:02;65.60;;;23.97;;
7308;SDS011;3695;53.330;9.876;2023-11-19T05:13:29;65.07;;;25.10;;
7308;SDS011;3695;53.330;9.876;2023-11-19T05:15:55;65.37;;;24.73;;
7308;SDS011;3695;53.330;9.876;2023-11-19T05:18:21;69.50;;;25.67;;
7308;SDS011;3695;53.330;9.876;2023-11-19T05:20:49;70.27;;;24.30;;
7308;SDS011;3695;53.330;9.876;2023-11-19T05:23:16;53.40;;;23.30;;
7308;SDS011;3695;53.330;9.876;2023-11-19T05:25:42;73.80;;;26.27;;
7308;SDS011;3695;53.330;9.876;2023-11-19T05:28:10;64.90;;;24.80;;
7308;SDS011;3695;53.330;9.876;2023-11-19T05:30:39;75.00;;;25.97;;
7308;SDS011;3695;53.330;9.876;2023-11-19T05:33:05;74.60;;;23.93;;
7308;SDS011;3695;53.330;9.876;2023-11-19T05:35:33;54.83;;;24.03;;
7308;SDS011;3695;53.330;9.876;2023-11-19T05:38:01;64.87;;;24.33;;
7308;SDS011;3695;53.330;9.876;2023-11-19T05:40:28;63.90;;;25.37;;
7308;SDS011;3695;53.330;9.876;2023-11-19T05:42:54;76.10;;;25.03;;
7308;SDS011;3695;53.330;9.876;2023-11-19T05:45:21;71.07;;;24.83;;
7308;SDS011;3695;53.330;9.876;2023-11-19T05:47:47;63.20;;;23.77;;
7308;SDS011;3695;53.330;9.876;2023-11-19T05:50:14;71.33;;;24.33;;
7308;SDS011;3695;53.330;9.876;2023-11-19T05:52:40;61.03;;;24.30;;
7308;SDS011;3695;53.330;9.876;2023-11-19T05:55:08;65.27;;;24.87;;
7308;SDS011;3695;53.330;9.876;2023-11-19T05:57:35;64.30;;;22.90;;
7308;SDS011;3695;53.330;9.876;2023-11-19T06:00:02;65.27;;;21.90;;
7308;SDS011;3695;53.330;9.876;2023-11-19T06:02:32;66.53;;;22.30;;
7308;SDS011;3695;53.330;9.876;2023-11-19T06:04:58;65.67;;;23.93;;
7308;SDS011;3695;53.330;9.876;2023-11-19T06:07:25;70.13;;;23.40;;
7308;SDS011;3695;53.330;9.876;2023-11-19T06:09:51;60.03;;;22.97;;
7308;SDS011;3695;53.330;9.876;2023-11-19T06:12:19;63.97;;;21.07;;
7308;SDS011;3695;53.330;9.876;2023-11-19T06:14:46;56.23;;;23.67;;
7308;SDS011;3695;53.330;9.876;2023-11-19T06:17:12;62.20;;;23.87;;
7308;SDS011;3695;53.330;9.876;2023-11-19T06:19:39;65.60;;;24.10;;
7308;SDS011;3695;53.330;9.876;2023-11-19T06:22:05;59.97;;;23.57;;
7308;SDS011;3695;53.330;9.876;2023-11-19T06:24:32;72.70;;;23.93;;
7308;SDS011;3695;53.330;9.876;2023-11-19T06:26:58;56.43;;;23.63;;
7308;SDS011;3695;53.330;9.876;2023-11-19T06:29:26;57.97;;;23.10;;
7308;SDS011;3695;53.330;9.876;2023-11-19T06:31:52;65.70;;;22.37;;
7308;SDS011;3695;53.330;9.876;2023-11-19T06:34:19;60.60;;;22.27;;
7308;SDS011;3695;53.330;9.876;2023-11-19T06:36:45;63.97;;;22.10;;
7308;SDS011;3695;53.330;9.876;2023-11-19T06:39:13;68.13;;;23.23;;
7308;SDS011;3695;53.330;9.876;2023-11-19T06:41:43;66.67;;;23.07;;
7308;SDS011;3695;53.330;9.876;2023-11-19T06:44:11;57.13;;;20.17;;
7308;SDS011;3695;53.330;9.876;2023-11-19T06:46:39;56.73;;;22.17;;
7308;SDS011;3695;53.330;9.876;2023-11-19T06:49:05;66.73;;;21.83;;
7308;SDS011;3695;53.330;9.876;2023-11-19T06:51:33;70.30;;;23.70;;
7308;SDS011;3695;53.330;9.876;2023-11-19T06:53:59;59.33;;;19.50;;
7308;SDS011;3695;53.330;9.876;2023-11-19T06:56:26;62.70;;;21.03;;
7308;SDS011;3695;53.330;9.876;2023-11-19T06:58:52;65.00;;;19.97;;
7308;SDS011;3695;53.330;9.876;2023-11-19T07:01:19;54.83;;;20.53;;
7308;SDS011;3695;53.330;9.876;2023-11-19T07:03:47;64.30;;;20.87;;
7308;SDS011;3695;53.330;9.876;2023-11-19T07:06:14;66.00;;;19.70;;
7308;SDS011;3695;53.330;9.876;2023-11-19T07:08:40;59.47;;;20.00;;
7308;SDS011;3695;53.330;9.876;2023-11-19T07:11:07;69.83;;;19.37;;
7308;SDS011;3695;53.330;9.876;2023-11-19T07:13:35;53.83;;;19.13;;
7308;SDS011;3695;53.330;9.876;2023-11-19T07:16:01;61.60;;;20.27;;
7308;SDS011;3695;53.330;9.876;2023-11-19T07:18:27;55.83;;;17.97;;
7308;SDS011;3695;53.330;9.876;2023-11-19T07:20:55;51.67;;;18.63;;
7308;SDS011;3695;53.330;9.876;2023-11-19T07:23:22;48.63;;;18.37;;
7308;SDS011;3695;53.330;9.876;2023-11-19T07:25:48;53.63;;;17.53;;
7308;SDS011;3695;53.330;9.876;2023-11-19T07:28:17;47.37;;;16.97;;
7308;SDS011;3695;53.330;9.876;2023-11-19T07:30:43;56.43;;;16.97;;
7308;SDS011;3695;53.330;9.876;2023-11-19T07:33:10;52.67;;;17.33;;
7308;SDS011;3695;53.330;9.876;2023-11-19T07:35:36;42.67;;;14.47;;
7308;SDS011;3695;53.330;9.876;2023-11-19T07:38:04;50.10;;;16.27;;
7308;SDS011;3695;53.330;9.876;2023-11-19T07:40:31;47.27;;;16.27;;
7308;SDS011;3695;53.330;9.876;2023-11-19T07:42:57;56.30;;;15.83;;
7308;SDS011;3695;53.330;9.876;2023-11-19T07:45:24;60.03;;;14.70;;
7308;SDS011;3695;53.330;9.876;2023-11-19T07:47:52;40.73;;;13.17;;
7308;SDS011;3695;53.330;9.876;2023-11-19T07:50:19;40.83;;;13.40;;
7308;SDS011;3695;53.330;9.876;2023-11-19T07:52:46;51.67;;;13.83;;
7308;SDS011;3695;53.330;9.876;2023-11-19T07:55:14;43.97;;;11.33;;
7308;SDS011;3695;53.330;9.876;2023-11-19T07:57:40;49.70;;;12.13;;
7308;SDS011;3695;53.330;9.876;2023-11-19T08:00:07;63.07;;;12.70;;
7308;SDS011;3695;53.330;9.876;2023-11-19T08:02:37;53.93;;;14.33;;
7308;SDS011;3695;53.330;9.876;2023-11-19T08:05:03;39.27;;;10.57;;
7308;SDS011;3695;53.330;9.876;2023-11-19T08:07:30;37.97;;;10.80;;
7308;SDS011;3695;53.330;9.876;2023-11-19T08:09:57;45.13;;;10.07;;
7308;SDS011;3695;53.330;9.876;2023-11-19T08:12:25;45.77;;;10.10;;
7308;SDS011;3695;53.330;9.876;2023-11-19T08:14:51;40.23;;;9.90;;
7308;SDS011;3695;53.330;9.876;2023-11-19T08:17:18;39.63;;;10.97;;
7308;SDS011;3695;53.330;9.876;2023-11-19T08:19:44;52.67;;;10.80;;
7308;SDS011;3695;53.330;9.876;2023-11-19T08:22:10;52.37;;;10.33;;
7308;SDS011;3695;53.330;9.876;2023-11-19T08:24:37;45.80;;;9.40;;
7308;SDS011;3695;53.330;9.876;2023-11-19T08:27:03;44.43;;;10.43;;
7308;SDS011;3695;53.330;9.876;2023-11-19T08:29:31;47.83;;;10.50;;
7308;SDS011;3695;53.330;9.876;2023-11-19T08:31:59;47.90;;;10.03;;
7308;SDS011;3695;53.330;9.876;2023-11-19T08:34:26;56.63;;;13.17;;
7308;SDS011;3695;53.330;9.876;2023-11-19T08:36:53;56.37;;;11.10;;
7308;SDS011;3695;53.330;9.876;2023-11-19T08:39:19;48.13;;;9.70;;
7308;SDS011;3695;53.330;9.876;2023-11-19T08:41:47;39.50;;;9.00;;
7308;SDS011;3695;53.330;9.876;2023-11-19T08:44:13;48.10;;;9.43;;
7308;SDS011;3695;53.330;9.876;2023-11-19T08:46:47;47.10;;;10.17;;
7308;SDS011;3695;53.330;9.876;2023-11-19T08:49:13;47.93;;;9.50;;
7308;SDS011;3695;53.330;9.876;2023-11-19T08:51:40;45.60;;;10.30;;
7308;SDS011;3695;53.330;9.876;2023-11-19T08:54:07;42.17;;;9.30;;
7308;SDS011;3695;53.330;9.876;2023-11-19T08:56:33;41.07;;;8.90;;
7308;SDS011;3695;53.330;9.876;2023-11-19T08:59:00;38.83;;;8.33;;
7308;SDS011;3695;53.330;9.876;2023-11-19T09:01:27;44.73;;;8.33;;
7308;SDS011;3695;53.330;9.876;2023-11-19T09:03:55;69.43;;;11.70;;
7308;SDS011;3695;53.330;9.876;2023-11-19T09:06:22;46.30;;;9.73;;
7308;SDS011;3695;53.330;9.876;2023-11-19T09:08:48;49.63;;;9.77;;
7308;SDS011;3695;53.330;9.876;2023-11-19T09:11:15;45.57;;;10.23;;
7308;SDS011;3695;53.330;9.876;2023-11-19T09:13:42;58.27;;;9.73;;
7308;SDS011;3695;53.330;9.876;2023-11-19T09:16:11;43.90;;;9.17;;
7308;SDS011;3695;53.330;9.876;2023-11-19T09:18:37;49.83;;;9.07;;
7308;SDS011;3695;53.330;9.876;2023-11-19T09:21:05;51.90;;;9.87;;
7308;SDS011;3695;53.330;9.876;2023-11-19T09:23:32;48.87;;;8.50;;
7308;SDS011;3695;53.330;9.876;2023-11-19T09:26:04;50.47;;;9.03;;
7308;SDS011;3695;53.330;9.876;2023-11-19T09:28:31;40.83;;;8.27;;
7308;SDS011;3695;53.330;9.876;2023-11-19T09:30:58;49.60;;;10.07;;
7308;SDS011;3695;53.330;9.876;2023-11-19T09:33:24;49.70;;;7.77;;
7308;SDS011;3695;53.330;9.876;2023-11-19T09:35:51;43.57;;;8.43;;
7308;SDS011;3695;53.330;9.876;2023-11-19T09:38:19;40.93;;;9.03;;
7308;SDS011;3695;53.330;9.876;2023-11-19T09:40:45;46.27;;;7.90;;
7308;SDS011;3695;53.330;9.876;2023-11-19T09:43:12;47.10;;;8.87;;
7308;SDS011;3695;53.330;9.876;2023-11-19T09:45:43;40.10;;;6.97;;
7308;SDS011;3695;53.330;9.876;2023-11-19T09:48:15;37.73;;;7.97;;
7308;SDS011;3695;53.330;9.876;2023-11-19T09:50:42;37.83;;;8.00;;
7308;SDS011;3695;53.330;9.876;2023-11-19T09:53:10;43.77;;;7.53;;
7308;SDS011;3695;53.330;9.876;2023-11-19T09:55:38;49.83;;;8.47;;
7308;SDS011;3695;53.330;9.876;2023-11-19T09:58:04;32.57;;;6.07;;
7308;SDS011;3695;53.330;9.876;2023-11-19T10:00:32;39.03;;;8.07;;
7308;SDS011;3695;53.330;9.876;2023-11-19T10:02:59;34.33;;;7.70;;
7308;SDS011;3695;53.330;9.876;2023-11-19T10:05:26;43.70;;;6.67;;
7308;SDS011;3695;53.330;9.876;2023-11-19T10:07:52;37.87;;;7.23;;
7308;SDS011;3695;53.330;9.876;2023-11-19T10:10:20;35.07;;;6.50;;
7308;SDS011;3695;53.330;9.876;2023-11-19T10:12:50;42.53;;;7.30;;
7308;SDS011;3695;53.330;9.876;2023-11-19T10:15:19;41.27;;;6.70;;
7308;SDS011;3695;53.330;9.876;2023-11-19T10:17:49;32.10;;;6.33;;
7308;SDS011;3695;53.330;9.876;2023-11-19T10:20:16;30.77;;;5.53;;
7308;SDS011;3695;53.330;9.876;2023-11-19T10:22:44;32.70;;;6.60;;
7308;SDS011;3695;53.330;9.876;2023-11-19T10:25:22;36.27;;;6.63;;
7308;SDS011;3695;53.330;9.876;2023-11-19T10:27:50;41.20;;;7.70;;
7308;SDS011;3695;53.330;9.876;2023-11-19T10:30:17;38.67;;;6.90;;
7308;SDS011;3695;53.330;9.876;2023-11-19T10:32:44;38.40;;;6.63;;
7308;SDS011;3695;53.330;9.876;2023-11-19T10:35:11;30.00;;;5.43;;
7308;SDS011;3695;53.330;9.876;2023-11-19T10:37:38;32.07;;;6.47;;
7308;SDS011;3695;53.330;9.876;2023-11-19T10:40:06;39.03;;;7.73;;
7308;SDS011;3695;53.330;9.876;2023-11-19T10:42:35;37.33;;;6.03;;
7308;SDS011;3695;53.330;9.876;2023-11-19T10:45:03;26.87;;;6.03;;
7308;SDS011;3695;53.330;9.876;2023-11-19T10:47:30;31.67;;;4.97;;
7308;SDS011;3695;53.330;9.876;2023-11-19T10:49:58;27.97;;;5.60;;
7308;SDS011;3695;53.330;9.876;2023-11-19T10:52:25;29.73;;;6.73;;
7308;SDS011;3695;53.330;9.876;2023-11-19T10:54:53;27.77;;;5.60;;
7308;SDS011;3695;53.330;9.876;2023-11-19T10:57:26;33.70;;;5.77;;
7308;SDS011;3695;53.330;9.876;2023-11-19T11:00:00;28.17;;;5.77;;
7308;SDS011;3695;53.330;9.876;2023-11-19T11:02:29;38.30;;;7.37;;
7308;SDS011;3695;53.330;9.876;2023-11-19T11:05:00;32.93;;;7.33;;
7308;SDS011;3695;53.330;9.876;2023-11-19T11:07:28;28.77;;;6.27;;
7308;SDS011;3695;53.330;9.876;2023-11-19T11:09:56;26.27;;;5.60;;
7308;SDS011;3695;53.330;9.876;2023-11-19T11:12:23;33.37;;;6.50;;
7308;SDS011;3695;53.330;9.876;2023-11-19T11:14:52;33.17;;;6.63;;
7308;SDS011;3695;53.330;9.876;2023-11-19T11:17:20;28.80;;;5.50;;
7308;SDS011;3695;53.330;9.876;2023-11-19T11:19:53;36.03;;;6.10;;
7308;SDS011;3695;53.330;9.876;2023-11-19T11:22:20;32.30;;;6.20;;
7308;SDS011;3695;53.330;9.876;2023-11-19T11:24:56;26.40;;;6.60;;
7308;SDS011;3695;53.330;9.876;2023-11-19T11:27:47;38.73;;;5.80;;
7308;SDS011;3695;53.330;9.876;2023-11-19T11:30:20;31.63;;;5.87;;
7308;SDS011;3695;53.330;9.876;2023-11-19T11:33:17;30.10;;;5.37;;
7308;SDS011;3695;53.330;9.876;2023-11-19T11:36:02;32.07;;;6.33;;
7308;SDS011;3695;53.330;9.876;2023-11-19T11:38:39;29.63;;;6.23;;
7308;SDS011;3695;53.330;9.876;2023-11-19T11:41:16;30.40;;;6.20;;
7308;SDS011;3695;53.330;9.876;2023-11-19T11:43:45;30.87;;;6.20;;
7308;SDS011;3695;53.330;9.876;2023-11-19T11:49:16;40.03;;;7.17;;
7308;SDS011;3695;53.330;9.876;2023-11-19T11:51:59;37.13;;;5.77;;
7308;SDS011;3695;53.330;9.876;2023-11-19T11:54:27;29.33;;;5.93;;
7308;SDS011;3695;53.330;9.876;2023-11-19T11:59:45;33.50;;;6.03;;
7308;SDS011;3695;53.330;9.876;2023-11-19T12:02:13;26.53;;;5.13;;
7308;SDS011;3695;53.330;9.876;2023-11-19T12:04:41;34.83;;;6.47;;
7308;SDS011;3695;53.330;9.876;2023-11-19T12:07:12;26.67;;;5.60;;
7308;SDS011;3695;53.330;9.876;2023-11-19T12:09:40;25.87;;;5.27;;
7308;SDS011;3695;53.330;9.876;2023-11-19T12:12:07;25.27;;;5.70;;
7308;SDS011;3695;53.330;9.876;2023-11-19T12:20:21;25.97;;;6.00;;
7308;SDS011;3695;53.330;9.876;2023-11-19T12:22:50;30.63;;;7.27;;
7308;SDS011;3695;53.330;9.876;2023-11-19T12:25:17;29.37;;;5.70;;
7308;SDS011;3695;53.330;9.876;2023-11-19T12:27:45;26.77;;;5.50;;
7308;SDS011;3695;53.330;9.876;2023-11-19T12:30:17;27.40;;;5.40;;
7308;SDS011;3695;53.330;9.876;2023-11-19T12:32:47;30.00;;;5.77;;
7308;SDS011;3695;53.330;9.876;2023-11-19T12:35:14;36.43;;;6.67;;
7308;SDS011;3695;53.330;9.876;2023-11-19T12:37:41;32.87;;;5.00;;
7308;SDS011;3695;53.330;9.876;2023-11-19T12:40:16;32.07;;;5.57;;
7308;SDS011;3695;53.330;9.876;2023-11-19T12:42:43;28.63;;;4.93;;
7308;SDS011;3695;53.330;9.876;2023-11-19T12:45:10;30.50;;;5.73;;
7308;SDS011;3695;53.330;9.876;2023-11-19T12:47:37;28.47;;;5.73;;
7308;SDS011;3695;53.330;9.876;2023-11-19T12:50:04;31.40;;;5.50;;
7308;SDS011;3695;53.330;9.876;2023-11-19T12:52:31;29.83;;;6.70;;
7308;SDS011;3695;53.330;9.876;2023-11-19T12:54:58;34.33;;;6.03;;
7308;SDS011;3695;53.330;9.876;2023-11-19T12:57:36;28.07;;;6.03;;
7308;SDS011;3695;53.330;9.876;2023-11-19T13:00:04;24.80;;;5.03;;
7308;SDS011;3695;53.330;9.876;2023-11-19T13:02:46;26.97;;;6.30;;
7308;SDS011;3695;53.330;9.876;2023-11-19T13:05:21;29.43;;;6.00;;
7308;SDS011;3695;53.330;9.876;2023-11-19T13:07:57;31.30;;;6.23;;
7308;SDS011;3695;53.330;9.876;2023-11-19T13:10:25;30.70;;;6.07;;
7308;SDS011;3695;53.330;9.876;2023-11-19T13:13:06;33.17;;;6.97;;
7308;SDS011;3695;53.330;9.876;2023-11-19T13:15:34;27.70;;;6.17;;
7308;SDS011;3695;53.330;9.876;2023-11-19T13:18:01;25.03;;;5.50;;
7308;SDS011;3695;53.330;9.876;2023-11-19T13:20:28;34.07;;;6.03;;
7308;SDS011;3695;53.330;9.876;2023-11-19T13:22:55;27.13;;;6.30;;
7308;SDS011;3695;53.330;9.876;2023-11-19T13:25:22;34.43;;;7.33;;
7308;SDS011;3695;53.330;9.876;2023-11-19T13:27:49;28.57;;;5.67;;
7308;SDS011;3695;53.330;9.876;2023-11-19T13:30:17;27.67;;;6.37;;
7308;SDS011;3695;53.330;9.876;2023-11-19T13:32:43;31.53;;;6.73;;
7308;SDS011;3695;53.330;9.876;2023-11-19T13:35:11;33.97;;;6.57;;
7308;SDS011;3695;53.330;9.876;2023-11-19T13:37:37;35.80;;;6.43;;
7308;SDS011;3695;53.330;9.876;2023-11-19T13:40:04;33.20;;;5.83;;
7308;SDS011;3695;53.330;9.876;2023-11-19T13:42:32;37.67;;;6.97;;
7308;SDS011;3695;53.330;9.876;2023-11-19T13:44:59;29.57;;;6.50;;
7308;SDS011;3695;53.330;9.876;2023-11-19T13:47:26;41.30;;;6.60;;
7308;SDS011;3695;53.330;9.876;2023-11-19T13:49:53;30.33;;;6.10;;
7308;SDS011;3695;53.330;9.876;2023-11-19T13:52:19;28.07;;;5.60;;
7308;SDS011;3695;53.330;9.876;2023-11-19T13:54:46;41.77;;;7.23;;
7308;SDS011;3695;53.330;9.876;2023-11-19T13:57:12;33.90;;;6.20;;
7308;SDS011;3695;53.330;9.876;2023-11-19T13:59:41;26.93;;;6.03;;
7308;SDS011;3695;53.330;9.876;2023-11-19T14:02:08;30.83;;;7.50;;
7308;SDS011;3695;53.330;9.876;2023-11-19T14:04:36;40.50;;;6.90;;
7308;SDS011;3695;53.330;9.876;2023-11-19T14:07:03;32.83;;;6.87;;
7308;SDS011;3695;53.330;9.876;2023-11-19T14:09:29;33.93;;;5.50;;
7308;SDS011;3695;53.330;9.876;2023-11-19T14:11:56;26.87;;;5.90;;
7308;SDS011;3695;53.330;9.876;2023-11-19T14:14:22;28.53;;;7.03;;
7308;SDS011;3695;53.330;9.876;2023-11-19T14:16:49;37.47;;;7.70;;
7308;SDS011;3695;53.330;9.876;2023-11-19T14:19:15;27.13;;;5.87;;
7308;SDS011;3695;53.330;9.876;2023-11-19T14:21:43;37.37;;;6.80;;
7308;SDS011;3695;53.330;9.876;2023-11-19T14:24:10;30.30;;;6.40;;
7308;SDS011;3695;53.330;9.876;2023-11-19T14:26:36;37.17;;;5.80;;
7308;SDS011;3695;53.330;9.876;2023-11-19T14:29:03;35.43;;;5.70;;
7308;SDS011;3695;53.330;9.876;2023-11-19T14:31:29;34.30;;;6.50;;
7308;SDS011;3695;53.330;9.876;2023-11-19T14:33:57;24.40;;;6.63;;
7308;SDS011;3695;53.330;9.876;2023-11-19T14:36:23;29.97;;;5.87;;
7308;SDS011;3695;53.330;9.876;2023-11-19T14:38:51;27.63;;;5.73;;
7308;SDS011;3695;53.330;9.876;2023-11-19T14:41:17;26.20;;;5.07;;
7308;SDS011;3695;53.330;9.876;2023-11-19T14:43:44;25.43;;;5.67;;
7308;SDS011;3695;53.330;9.876;2023-11-19T14:46:10;22.70;;;6.27;;
7308;SDS011;3695;53.330;9.876;2023-11-19T14:48:37;30.77;;;5.23;;
7308;SDS011;3695;53.330;9.876;2023-11-19T14:51:03;22.60;;;5.20;;
7308;SDS011;3695;53.330;9.876;2023-11-19T14:53:30;27.97;;;5.20;;
7308;SDS011;3695;53.330;9.876;2023-11-19T14:55:58;18.63;;;4.63;;
7308;SDS011;3695;53.330;9.876;2023-11-19T14:58:24;26.70;;;5.17;;
7308;SDS011;3695;53.330;9.876;2023-11-19T15:00:51;17.20;;;5.20;;
7308;SDS011;3695;53.330;9.876;2023-11-19T15:03:18;17.17;;;4.77;;
7308;SDS011;3695;53.330;9.876;2023-11-19T15:05:45;19.73;;;5.20;;
7308;SDS011;3695;53.330;9.876;2023-11-19T15:08:12;18.17;;;3.83;;
7308;SDS011;3695;53.330;9.876;2023-11-19T15:10:38;20.60;;;4.43;;
7308;SDS011;3695;53.330;9.876;2023-11-19T15:13:07;20.10;;;4.10;;
7308;SDS011;3695;53.330;9.876;2023-11-19T15:15:34;17.57;;;4.10;;